sensor_id;sensor_type;location;lat;lon;timestamp;pressure;altitude;pressure_sealevel;temperature;humidity
71313;BME280;59104;44.738;20.612;2022-07-22T00:00:39;100128.53;;;22.92;53.59
71313;BME280;59104;44.738;20.612;2022-07-22T00:03:04;100139.19;;;22.93;53.92
71313;BME280;59104;44.738;20.612;2022-07-22T00:05:30;100133.16;;;22.91;53.76
71313;BME280;59104;44.738;20.612;2022-07-22T00:07:56;100107.88;;;22.68;53.74
71313;BME280;59104;44.738;20.612;2022-07-22T00:10:22;100133.88;;;22.87;54.07
71313;BME280;59104;44.738;20.612;2022-07-22T00:12:48;100148.09;;;22.89;54.28
71313;BME280;59104;44.738;20.612;2022-07-22T00:15:13;100150.22;;;22.87;53.92
71313;BME280;59104;44.738;20.612;2022-07-22T00:17:39;100149.53;;;22.80;53.93
71313;BME280;59104;44.738;20.612;2022-07-22T00:20:06;100148.75;;;22.79;53.74
71313;BME280;59104;44.738;20.612;2022-07-22T00:22:32;100150.78;;;22.72;54.23
71313;BME280;59104;44.738;20.612;2022-07-22T00:24:58;100159.78;;;22.73;54.30
71313;BME280;59104;44.738;20.612;2022-07-22T00:27:24;100155.72;;;22.64;54.72
71313;BME280;59104;44.738;20.612;2022-07-22T00:29:49;100161.19;;;22.64;54.44
71313;BME280;59104;44.738;20.612;2022-07-22T00:32:15;100143.56;;;22.54;54.51
71313;BME280;59104;44.738;20.612;2022-07-22T00:34:41;100151.38;;;22.51;54.49
71313;BME280;59104;44.738;20.612;2022-07-22T00:37:06;100143.03;;;22.41;54.54
71313;BME280;59104;44.738;20.612;2022-07-22T00:39:32;100159.56;;;22.51;54.59
71313;BME280;59104;44.738;20.612;2022-07-22T00:41:59;100164.78;;;22.52;54.46
71313;BME280;59104;44.738;20.612;2022-07-22T00:44:25;100157.94;;;22.50;54.52
71313;BME280;59104;44.738;20.612;2022-07-22T00:46:51;100152.00;;;22.41;54.88
71313;BME280;59104;44.738;20.612;2022-07-22T00:49:16;100154.25;;;22.44;54.59
71313;BME280;59104;44.738;20.612;2022-07-22T00:51:42;100162.19;;;22.46;54.80
71313;BME280;59104;44.738;20.612;2022-07-22T00:54:08;100162.69;;;22.43;54.62
71313;BME280;59104;44.738;20.612;2022-07-22T00:56:34;100160.19;;;22.41;54.81
71313;BME280;59104;44.738;20.612;2022-07-22T00:59:04;100153.66;;;22.42;54.86
71313;BME280;59104;44.738;20.612;2022-07-22T01:01:31;100157.44;;;22.41;54.50
71313;BME280;59104;44.738;20.612;2022-07-22T01:03:57;100157.44;;;22.41;54.80
71313;BME280;59104;44.738;20.612;2022-07-22T01:06:23;100145.41;;;22.37;54.54
71313;BME280;59104;44.738;20.612;2022-07-22T01:08:49;100159.47;;;22.46;54.70
71313;BME280;59104;44.738;20.612;2022-07-22T01:11:19;100167.44;;;22.47;54.77
71313;BME280;59104;44.738;20.612;2022-07-22T01:13:45;100155.34;;;22.43;54.73
71313;BME280;59104;44.738;20.612;2022-07-22T01:16:12;100156.88;;;22.39;54.81
71313;BME280;59104;44.738;20.612;2022-07-22T01:18:39;100164.81;;;22.41;54.82
71313;BME280;59104;44.738;20.612;2022-07-22T01:21:06;100164.56;;;22.42;55.11
71313;BME280;59104;44.738;20.612;2022-07-22T01:23:32;100167.56;;;22.41;55.17
71313;BME280;59104;44.738;20.612;2022-07-22T01:25:59;100166.59;;;22.35;55.28
71313;BME280;59104;44.738;20.612;2022-07-22T01:28:25;100145.66;;;22.24;55.28
71313;BME280;59104;44.738;20.612;2022-07-22T01:30:51;100156.31;;;22.26;55.45
71313;BME280;59104;44.738;20.612;2022-07-22T01:33:18;100168.38;;;22.30;55.12
71313;BME280;59104;44.738;20.612;2022-07-22T01:35:45;100162.38;;;22.28;54.82
71313;BME280;59104;44.738;20.612;2022-07-22T01:38:11;100153.97;;;22.18;55.06
71313;BME280;59104;44.738;20.612;2022-07-22T01:40:38;100138.78;;;22.10;55.24
71313;BME280;59104;44.738;20.612;2022-07-22T01:43:03;100165.44;;;22.20;55.20
71313;BME280;59104;44.738;20.612;2022-07-22T01:45:29;100158.56;;;22.17;55.48
71313;BME280;59104;44.738;20.612;2022-07-22T01:47:55;100153.81;;;22.13;55.11
71313;BME280;59104;44.738;20.612;2022-07-22T01:50:23;100162.84;;;22.13;55.33
71313;BME280;59104;44.738;20.612;2022-07-22T01:52:50;100169.69;;;22.16;55.42
71313;BME280;59104;44.738;20.612;2022-07-22T01:55:16;100162.25;;;22.11;55.43
71313;BME280;59104;44.738;20.612;2022-07-22T01:57:43;100169.81;;;22.09;55.67
71313;BME280;59104;44.738;20.612;2022-07-22T02:00:17;100158.59;;;22.05;55.71
71313;BME280;59104;44.738;20.612;2022-07-22T02:02:44;100159.06;;;22.02;55.71
71313;BME280;59104;44.738;20.612;2022-07-22T02:05:09;100162.59;;;22.03;55.58
71313;BME280;59104;44.738;20.612;2022-07-22T02:07:36;100142.72;;;21.91;55.88
71313;BME280;59104;44.738;20.612;2022-07-22T02:10:04;100165.22;;;21.98;55.61
71313;BME280;59104;44.738;20.612;2022-07-22T02:12:32;100157.75;;;21.93;55.86
71313;BME280;59104;44.738;20.612;2022-07-22T02:14:58;100153.22;;;21.87;55.80
71313;BME280;59104;44.738;20.612;2022-07-22T02:17:24;100158.91;;;21.86;55.79
71313;BME280;59104;44.738;20.612;2022-07-22T02:19:50;100161.03;;;21.84;56.21
71313;BME280;59104;44.738;20.612;2022-07-22T02:22:17;100162.91;;;21.83;56.45
71313;BME280;59104;44.738;20.612;2022-07-22T02:24:45;100165.41;;;21.85;56.45
71313;BME280;59104;44.738;20.612;2022-07-22T02:27:12;100165.41;;;21.85;56.31
71313;BME280;59104;44.738;20.612;2022-07-22T02:29:38;100159.88;;;21.80;56.34
71313;BME280;59104;44.738;20.612;2022-07-22T02:32:04;100151.44;;;21.70;56.70
71313;BME280;59104;44.738;20.612;2022-07-22T02:34:30;100157.00;;;21.75;56.51
71313;BME280;59104;44.738;20.612;2022-07-22T02:36:56;100156.28;;;21.68;56.93
71313;BME280;59104;44.738;20.612;2022-07-22T02:39:22;100163.50;;;21.74;56.69
71313;BME280;59104;44.738;20.612;2022-07-22T02:41:48;100163.88;;;21.66;56.89
71313;BME280;59104;44.738;20.612;2022-07-22T02:44:14;100174.53;;;21.67;57.32
71313;BME280;59104;44.738;20.612;2022-07-22T02:46:40;100177.97;;;21.63;57.16
71313;BME280;59104;44.738;20.612;2022-07-22T02:49:21;100164.34;;;21.51;57.21
71313;BME280;59104;44.738;20.612;2022-07-22T02:51:47;100163.34;;;21.45;57.78
71313;BME280;59104;44.738;20.612;2022-07-22T02:54:13;100162.19;;;21.41;57.53
71313;BME280;59104;44.738;20.612;2022-07-22T02:56:39;100161.34;;;21.41;57.41
71313;BME280;59104;44.738;20.612;2022-07-22T02:59:04;100164.91;;;21.41;57.53
71313;BME280;59104;44.738;20.612;2022-07-22T03:01:30;100175.56;;;21.43;57.74
71313;BME280;59104;44.738;20.612;2022-07-22T03:03:58;100174.72;;;21.42;57.61
71313;BME280;59104;44.738;20.612;2022-07-22T03:06:25;100152.94;;;21.31;57.68
71313;BME280;59104;44.738;20.612;2022-07-22T03:09:06;100178.28;;;21.43;57.59
71313;BME280;59104;44.738;20.612;2022-07-22T03:11:34;100184.53;;;21.43;57.62
71313;BME280;59104;44.738;20.612;2022-07-22T03:14:01;100171.88;;;21.37;57.45
71313;BME280;59104;44.738;20.612;2022-07-22T03:16:27;100187.75;;;21.40;57.39
71313;BME280;59104;44.738;20.612;2022-07-22T03:18:54;100187.59;;;21.35;57.39
71313;BME280;59104;44.738;20.612;2022-07-22T03:21:21;100186.78;;;21.35;57.89
71313;BME280;59104;44.738;20.612;2022-07-22T03:23:48;100187.84;;;21.34;57.70
71313;BME280;59104;44.738;20.612;2022-07-22T03:26:20;100193.50;;;21.32;58.14
71313;BME280;59104;44.738;20.612;2022-07-22T03:28:47;100202.03;;;21.36;58.75
71313;BME280;59104;44.738;20.612;2022-07-22T03:31:13;100205.72;;;21.41;59.36
71313;BME280;59104;44.738;20.612;2022-07-22T03:33:39;100199.84;;;21.56;59.22
71313;BME280;59104;44.738;20.612;2022-07-22T03:36:07;100202.34;;;21.81;58.78
71313;BME280;59104;44.738;20.612;2022-07-22T03:38:36;100200.16;;;22.01;58.21
71313;BME280;59104;44.738;20.612;2022-07-22T03:41:03;100189.97;;;22.08;58.07
71313;BME280;59104;44.738;20.612;2022-07-22T03:43:30;100210.47;;;22.34;57.39
71313;BME280;59104;44.738;20.612;2022-07-22T03:45:56;100209.84;;;22.43;56.90
71313;BME280;59104;44.738;20.612;2022-07-22T03:48:21;100197.28;;;22.42;56.62
71313;BME280;59104;44.738;20.612;2022-07-22T03:50:47;100206.16;;;22.49;56.75
71313;BME280;59104;44.738;20.612;2022-07-22T03:53:15;100201.53;;;22.50;56.94
71313;BME280;59104;44.738;20.612;2022-07-22T03:55:42;100211.63;;;22.49;56.92
71313;BME280;59104;44.738;20.612;2022-07-22T03:58:08;100205.09;;;22.50;56.77
71313;BME280;59104;44.738;20.612;2022-07-22T04:00:34;100213.88;;;22.52;57.01
71313;BME280;59104;44.738;20.612;2022-07-22T04:03:02;100213.88;;;22.52;57.24
71313;BME280;59104;44.738;20.612;2022-07-22T04:05:47;100202.88;;;22.47;56.84
71313;BME280;59104;44.738;20.612;2022-07-22T04:08:18;100200.94;;;22.48;56.92
71313;BME280;59104;44.738;20.612;2022-07-22T04:10:45;100215.31;;;22.43;56.67
71313;BME280;59104;44.738;20.612;2022-07-22T04:13:11;100221.81;;;22.42;56.99
71313;BME280;59104;44.738;20.612;2022-07-22T04:15:57;100223.84;;;22.35;57.45
71313;BME280;59104;44.738;20.612;2022-07-22T04:18:23;100211.91;;;22.25;57.74
71313;BME280;59104;44.738;20.612;2022-07-22T04:20:48;100218.16;;;22.25;57.79
71313;BME280;59104;44.738;20.612;2022-07-22T04:23:17;100224.31;;;22.32;57.80
71313;BME280;59104;44.738;20.612;2022-07-22T04:25:43;100226.56;;;22.35;58.17
71313;BME280;59104;44.738;20.612;2022-07-22T04:28:10;100224.91;;;22.34;58.28
71313;BME280;59104;44.738;20.612;2022-07-22T04:30:36;100220.28;;;22.35;58.27
71313;BME280;59104;44.738;20.612;2022-07-22T04:33:02;100231.28;;;22.51;58.01
71313;BME280;59104;44.738;20.612;2022-07-22T04:35:28;100228.06;;;22.54;57.72
71313;BME280;59104;44.738;20.612;2022-07-22T04:38:07;100235.44;;;22.66;57.53
71313;BME280;59104;44.738;20.612;2022-07-22T04:40:33;100219.94;;;22.66;57.40
71313;BME280;59104;44.738;20.612;2022-07-22T04:42:59;100225.81;;;22.75;57.17
71313;BME280;59104;44.738;20.612;2022-07-22T04:45:25;100222.13;;;22.81;57.05
71313;BME280;59104;44.738;20.612;2022-07-22T04:47:50;100223.78;;;22.82;57.00
71313;BME280;59104;44.738;20.612;2022-07-22T04:50:16;100223.06;;;22.86;57.01
71313;BME280;59104;44.738;20.612;2022-07-22T04:52:42;100225.63;;;22.93;57.29
71313;BME280;59104;44.738;20.612;2022-07-22T04:55:09;100225.63;;;22.93;57.32
71313;BME280;59104;44.738;20.612;2022-07-22T04:57:34;100230.53;;;22.91;57.65
71313;BME280;59104;44.738;20.612;2022-07-22T05:00:03;100228.38;;;22.93;57.82
71313;BME280;59104;44.738;20.612;2022-07-22T05:02:33;100219.63;;;22.91;57.73
71313;BME280;59104;44.738;20.612;2022-07-22T05:04:59;100218.78;;;22.90;57.93
71313;BME280;59104;44.738;20.612;2022-07-22T05:07:24;100222.44;;;22.96;58.24
71313;BME280;59104;44.738;20.612;2022-07-22T05:09:50;100210.09;;;22.93;58.06
71313;BME280;59104;44.738;20.612;2022-07-22T05:12:15;100212.00;;;22.93;58.15
71313;BME280;59104;44.738;20.612;2022-07-22T05:14:42;100205.47;;;22.94;58.01
71313;BME280;59104;44.738;20.612;2022-07-22T05:17:11;100225.13;;;23.07;58.17
71313;BME280;59104;44.738;20.612;2022-07-22T05:19:45;100216.84;;;23.02;57.83
71313;BME280;59104;44.738;20.612;2022-07-22T05:22:11;100220.75;;;23.06;57.52
71313;BME280;59104;44.738;20.612;2022-07-22T05:24:36;100221.09;;;23.10;57.56
71313;BME280;59104;44.738;20.612;2022-07-22T05:27:02;100218.94;;;23.12;57.28
71313;BME280;59104;44.738;20.612;2022-07-22T05:29:29;100217.78;;;23.08;57.01
71313;BME280;59104;44.738;20.612;2022-07-22T05:31:55;100235.16;;;23.19;57.14
71313;BME280;59104;44.738;20.612;2022-07-22T05:34:20;100234.34;;;23.18;57.28
71313;BME280;59104;44.738;20.612;2022-07-22T05:36:51;100228.72;;;23.25;57.63
71313;BME280;59104;44.738;20.612;2022-07-22T05:39:17;100233.72;;;23.28;57.61
71313;BME280;59104;44.738;20.612;2022-07-22T05:41:44;100235.22;;;23.35;57.51
71313;BME280;59104;44.738;20.612;2022-07-22T05:44:10;100210.56;;;23.30;57.68
71313;BME280;59104;44.738;20.612;2022-07-22T05:46:36;100220.88;;;23.40;57.54
71313;BME280;59104;44.738;20.612;2022-07-22T05:49:02;100234.09;;;23.48;57.82
71313;BME280;59104;44.738;20.612;2022-07-22T05:51:32;100230.06;;;23.50;57.94
71313;BME280;59104;44.738;20.612;2022-07-22T05:53:59;100228.00;;;23.57;57.96
71313;BME280;59104;44.738;20.612;2022-07-22T05:56:28;100232.97;;;23.60;57.83
71313;BME280;59104;44.738;20.612;2022-07-22T05:58:54;100224.78;;;23.60;57.85
71313;BME280;59104;44.738;20.612;2022-07-22T06:01:21;100232.09;;;23.72;57.58
71313;BME280;59104;44.738;20.612;2022-07-22T06:03:47;100237.13;;;23.80;57.37
71313;BME280;59104;44.738;20.612;2022-07-22T06:06:14;100226.19;;;23.80;57.08
71313;BME280;59104;44.738;20.612;2022-07-22T06:08:40;100233.66;;;23.84;56.72
71313;BME280;59104;44.738;20.612;2022-07-22T06:11:06;100236.47;;;23.89;56.21
71313;BME280;59104;44.738;20.612;2022-07-22T06:13:33;100252.28;;;24.04;55.78
71313;BME280;59104;44.738;20.612;2022-07-22T06:15:59;100244.16;;;24.09;55.91
71313;BME280;59104;44.738;20.612;2022-07-22T06:18:25;100257.63;;;24.27;55.78
71313;BME280;59104;44.738;20.612;2022-07-22T06:20:51;100253.88;;;24.33;55.02
71313;BME280;59104;44.738;20.612;2022-07-22T06:23:18;100254.22;;;24.37;54.49
71313;BME280;59104;44.738;20.612;2022-07-22T06:25:44;100245.88;;;24.48;54.40
71313;BME280;59104;44.738;20.612;2022-07-22T06:28:29;100264.50;;;24.68;54.11
71313;BME280;59104;44.738;20.612;2022-07-22T06:30:55;100258.34;;;24.78;53.85
71313;BME280;59104;44.738;20.612;2022-07-22T06:33:21;100273.00;;;24.88;52.98
71313;BME280;59104;44.738;20.612;2022-07-22T06:35:47;100273.63;;;24.95;52.26
71313;BME280;59104;44.738;20.612;2022-07-22T06:38:13;100276.50;;;25.05;51.50
71313;BME280;59104;44.738;20.612;2022-07-22T06:40:59;100269.13;;;25.06;49.88
71313;BME280;59104;44.738;20.612;2022-07-22T06:43:59;100266.50;;;25.16;49.82
71313;BME280;59104;44.738;20.612;2022-07-22T06:46:51;100270.72;;;25.24;49.75
71313;BME280;59104;44.738;20.612;2022-07-22T06:49:19;100279.59;;;25.36;49.60
71313;BME280;59104;44.738;20.612;2022-07-22T06:51:45;100268.66;;;25.36;49.64
71313;BME280;59104;44.738;20.612;2022-07-22T06:54:11;100274.63;;;25.54;49.83
71313;BME280;59104;44.738;20.612;2022-07-22T06:56:37;100277.16;;;25.61;49.16
71313;BME280;59104;44.738;20.612;2022-07-22T06:59:03;100266.56;;;25.69;49.45
71313;BME280;59104;44.738;20.612;2022-07-22T07:01:29;100278.75;;;25.84;49.33
71313;BME280;59104;44.738;20.612;2022-07-22T07:03:59;100274.41;;;25.88;48.72
71313;BME280;59104;44.738;20.612;2022-07-22T07:06:25;100262.03;;;25.85;48.42
71313;BME280;59104;44.738;20.612;2022-07-22T07:09:11;100270.63;;;25.94;47.19
71313;BME280;59104;44.738;20.612;2022-07-22T07:11:37;100259.69;;;25.99;47.28
71313;BME280;59104;44.738;20.612;2022-07-22T07:14:10;100281.00;;;26.18;46.26
71313;BME280;59104;44.738;20.612;2022-07-22T07:16:36;100260.97;;;26.18;45.97
71313;BME280;59104;44.738;20.612;2022-07-22T07:19:02;100263.78;;;26.28;46.26
71313;BME280;59104;44.738;20.612;2022-07-22T07:21:27;100271.00;;;26.39;45.02
71313;BME280;59104;44.738;20.612;2022-07-22T07:23:54;100269.72;;;26.52;43.58
71313;BME280;59104;44.738;20.612;2022-07-22T07:26:20;100270.03;;;26.60;43.41
71313;BME280;59104;44.738;20.612;2022-07-22T07:28:46;100282.19;;;26.75;43.23
71313;BME280;59104;44.738;20.612;2022-07-22T07:31:24;100272.06;;;26.80;43.80
71313;BME280;59104;44.738;20.612;2022-07-22T07:33:51;100277.06;;;26.83;43.20
71313;BME280;59104;44.738;20.612;2022-07-22T07:36:19;100274.31;;;26.88;43.04
71313;BME280;59104;44.738;20.612;2022-07-22T07:38:49;100285.63;;;26.97;43.35
71313;BME280;59104;44.738;20.612;2022-07-22T07:41:16;100269.69;;;26.94;41.38
71313;BME280;59104;44.738;20.612;2022-07-22T07:43:42;100285.09;;;27.05;42.05
71313;BME280;59104;44.738;20.612;2022-07-22T07:46:08;100292.31;;;27.16;42.18
71313;BME280;59104;44.738;20.612;2022-07-22T07:48:34;100278.88;;;27.19;42.76
71313;BME280;59104;44.738;20.612;2022-07-22T07:51:00;100277.22;;;27.18;42.18
71313;BME280;59104;44.738;20.612;2022-07-22T07:53:26;100284.09;;;27.26;41.80
71313;BME280;59104;44.738;20.612;2022-07-22T07:55:52;100278.88;;;27.30;38.80
71313;BME280;59104;44.738;20.612;2022-07-22T07:58:19;100288.53;;;27.42;37.84
71313;BME280;59104;44.738;20.612;2022-07-22T08:00:45;100286.97;;;27.51;39.04
71313;BME280;59104;44.738;20.612;2022-07-22T08:03:11;100282.53;;;27.55;38.75
71313;BME280;59104;44.738;20.612;2022-07-22T08:05:37;100276.78;;;27.57;38.88
71313;BME280;59104;44.738;20.612;2022-07-22T08:08:08;100271.28;;;27.52;40.17
71313;BME280;59104;44.738;20.612;2022-07-22T08:10:34;100288.91;;;27.61;38.38
71313;BME280;59104;44.738;20.612;2022-07-22T08:13:09;100277.34;;;27.59;41.13
71313;BME280;59104;44.738;20.612;2022-07-22T08:15:58;100286.44;;;27.64;38.19
71313;BME280;59104;44.738;20.612;2022-07-22T08:18:27;100285.59;;;27.64;41.00
71313;BME280;59104;44.738;20.612;2022-07-22T08:20:53;100289.47;;;27.73;35.66
71313;BME280;59104;44.738;20.612;2022-07-22T08:23:26;100273.53;;;27.85;36.84
71313;BME280;59104;44.738;20.612;2022-07-22T08:25:52;100287.03;;;28.17;36.61
71313;BME280;59104;44.738;20.612;2022-07-22T08:28:17;100295.28;;;28.47;35.17
71313;BME280;59104;44.738;20.612;2022-07-22T08:30:44;100282.59;;;28.66;32.38
71313;BME280;59104;44.738;20.612;2022-07-22T08:33:10;100273.19;;;28.77;32.83
71313;BME280;59104;44.738;20.612;2022-07-22T08:35:37;100277.31;;;28.85;32.48
71313;BME280;59104;44.738;20.612;2022-07-22T08:38:03;100291.31;;;28.99;32.59
71313;BME280;59104;44.738;20.612;2022-07-22T08:40:29;100288.53;;;29.04;33.80
71313;BME280;59104;44.738;20.612;2022-07-22T08:42:56;100290.19;;;29.05;33.67
71313;BME280;59104;44.738;20.612;2022-07-22T08:45:23;100294.81;;;29.19;32.57
71313;BME280;59104;44.738;20.612;2022-07-22T08:47:50;100297.53;;;29.29;31.76
71313;BME280;59104;44.738;20.612;2022-07-22T08:50:31;100281.00;;;29.29;32.75
71313;BME280;59104;44.738;20.612;2022-07-22T08:53:01;100303.31;;;29.33;34.27
71313;BME280;59104;44.738;20.612;2022-07-22T08:55:27;100284.88;;;29.23;33.86
71313;BME280;59104;44.738;20.612;2022-07-22T08:57:53;100306.59;;;29.35;34.04
71313;BME280;59104;44.738;20.612;2022-07-22T09:00:21;100307.38;;;29.46;33.21
71313;BME280;59104;44.738;20.612;2022-07-22T09:02:49;100305.69;;;29.55;32.34
71313;BME280;59104;44.738;20.612;2022-07-22T09:05:16;100296.00;;;29.57;32.16
71313;BME280;59104;44.738;20.612;2022-07-22T09:07:43;100307.22;;;29.76;30.20
71313;BME280;59104;44.738;20.612;2022-07-22T09:10:18;100292.59;;;29.75;30.55
71313;BME280;59104;44.738;20.612;2022-07-22T09:13:07;100311.25;;;29.94;27.21
71313;BME280;59104;44.738;20.612;2022-07-22T09:15:54;100309.25;;;30.04;26.01
71313;BME280;59104;44.738;20.612;2022-07-22T09:18:51;100314.69;;;30.14;25.81
71313;BME280;59104;44.738;20.612;2022-07-22T09:21:37;100309.09;;;30.24;26.07
71313;BME280;59104;44.738;20.612;2022-07-22T09:24:45;100309.03;;;30.29;27.19
71313;BME280;59104;44.738;20.612;2022-07-22T09:27:26;100308.75;;;30.31;26.34
71313;BME280;59104;44.738;20.612;2022-07-22T09:30:28;100301.81;;;30.33;25.64
71313;BME280;59104;44.738;20.612;2022-07-22T09:33:02;100297.94;;;30.40;26.62
71313;BME280;59104;44.738;20.612;2022-07-22T09:35:38;100300.94;;;30.38;27.87
71313;BME280;59104;44.738;20.612;2022-07-22T09:38:09;100306.97;;;30.45;28.30
71313;BME280;59104;44.738;20.612;2022-07-22T09:40:39;100302.56;;;30.44;26.07
71313;BME280;59104;44.738;20.612;2022-07-22T09:43:07;100301.34;;;30.55;24.88
71313;BME280;59104;44.738;20.612;2022-07-22T09:45:51;100302.91;;;30.66;24.74
71313;BME280;59104;44.738;20.612;2022-07-22T09:48:25;100308.31;;;30.76;26.23
71313;BME280;59104;44.738;20.612;2022-07-22T09:51:08;100309.25;;;30.91;25.49
71313;BME280;59104;44.738;20.612;2022-07-22T09:53:55;100308.06;;;31.02;25.22
71313;BME280;59104;44.738;20.612;2022-07-22T09:56:26;100289.53;;;31.02;25.21
71313;BME280;59104;44.738;20.612;2022-07-22T09:58:55;100294.66;;;31.14;25.06
71313;BME280;59104;44.738;20.612;2022-07-22T10:01:27;100296.22;;;31.20;24.92
71313;BME280;59104;44.738;20.612;2022-07-22T10:03:53;100298.91;;;31.25;26.03
71313;BME280;59104;44.738;20.612;2022-07-22T10:06:20;100292.19;;;31.31;27.32
71313;BME280;59104;44.738;20.612;2022-07-22T10:08:47;100303.13;;;31.41;26.05
71313;BME280;59104;44.738;20.612;2022-07-22T10:11:15;100291.47;;;31.44;26.70
71313;BME280;59104;44.738;20.612;2022-07-22T10:13:43;100300.72;;;31.58;26.92
71313;BME280;59104;44.738;20.612;2022-07-22T10:16:10;100292.94;;;31.60;27.46
71313;BME280;59104;44.738;20.612;2022-07-22T10:18:37;100288.69;;;31.68;27.27
71313;BME280;59104;44.738;20.612;2022-07-22T10:21:05;100284.78;;;31.69;26.02
71313;BME280;59104;44.738;20.612;2022-07-22T10:23:32;100288.31;;;31.74;26.05
71313;BME280;59104;44.738;20.612;2022-07-22T10:26:00;100287.09;;;31.80;26.72
71313;BME280;59104;44.738;20.612;2022-07-22T10:28:28;100284.56;;;31.84;26.35
71313;BME280;59104;44.738;20.612;2022-07-22T10:31:17;100291.13;;;31.88;26.91
71313;BME280;59104;44.738;20.612;2022-07-22T10:33:45;100292.16;;;31.92;27.25
71313;BME280;59104;44.738;20.612;2022-07-22T10:36:12;100284.69;;;31.93;26.89
71313;BME280;59104;44.738;20.612;2022-07-22T10:39:02;100289.22;;;32.02;27.40
71313;BME280;59104;44.738;20.612;2022-07-22T10:41:38;100289.56;;;32.01;27.10
71313;BME280;59104;44.738;20.612;2022-07-22T10:44:05;100294.13;;;32.10;27.26
71313;BME280;59104;44.738;20.612;2022-07-22T10:46:51;100288.50;;;32.15;27.30
71313;BME280;59104;44.738;20.612;2022-07-22T10:49:23;100290.16;;;32.16;27.31
71313;BME280;59104;44.738;20.612;2022-07-22T10:52:10;100280.31;;;32.24;27.27
71313;BME280;59104;44.738;20.612;2022-07-22T10:55:21;100280.75;;;32.31;26.69
71313;BME280;59104;44.738;20.612;2022-07-22T10:57:47;100284.56;;;32.35;26.14
71313;BME280;59104;44.738;20.612;2022-07-22T11:00:14;100282.22;;;32.42;26.79
71313;BME280;59104;44.738;20.612;2022-07-22T11:02:40;100281.28;;;32.47;26.93
71313;BME280;59104;44.738;20.612;2022-07-22T11:05:07;100275.13;;;32.50;26.23
71313;BME280;59104;44.738;20.612;2022-07-22T11:07:40;100277.25;;;32.58;26.40
71313;BME280;59104;44.738;20.612;2022-07-22T11:10:22;100279.59;;;32.64;25.91
71313;BME280;59104;44.738;20.612;2022-07-22T11:12:49;100257.75;;;32.63;26.03
71313;BME280;59104;44.738;20.612;2022-07-22T11:15:15;100268.94;;;32.71;25.17
71313;BME280;59104;44.738;20.612;2022-07-22T11:17:41;100273.56;;;32.76;26.08
71313;BME280;59104;44.738;20.612;2022-07-22T11:20:12;100263.63;;;32.75;25.75
71313;BME280;59104;44.738;20.612;2022-07-22T11:22:39;100239.28;;;32.72;24.76
71313;BME280;59104;44.738;20.612;2022-07-22T11:25:07;100247.09;;;32.83;25.58
71313;BME280;59104;44.738;20.612;2022-07-22T11:27:33;100262.19;;;32.91;23.46
71313;BME280;59104;44.738;20.612;2022-07-22T11:29:59;100261.25;;;32.96;23.69
71313;BME280;59104;44.738;20.612;2022-07-22T11:32:26;100262.78;;;33.02;23.46
71313;BME280;59104;44.738;20.612;2022-07-22T11:34:58;100263.81;;;33.06;22.86
71313;BME280;59104;44.738;20.612;2022-07-22T11:37:25;100251.38;;;33.03;22.72
71313;BME280;59104;44.738;20.612;2022-07-22T11:39:59;100254.97;;;33.17;22.32
71313;BME280;59104;44.738;20.612;2022-07-22T11:42:25;100256.22;;;33.25;22.36
71313;BME280;59104;44.738;20.612;2022-07-22T11:44:51;100250.88;;;33.28;23.43
71313;BME280;59104;44.738;20.612;2022-07-22T11:47:17;100250.25;;;33.31;21.85
71313;BME280;59104;44.738;20.612;2022-07-22T11:49:45;100242.13;;;33.35;22.99
71313;BME280;59104;44.738;20.612;2022-07-22T11:52:12;100255.63;;;33.50;23.79
71313;BME280;59104;44.738;20.612;2022-07-22T11:54:41;100242.59;;;33.51;23.19
71313;BME280;59104;44.738;20.612;2022-07-22T11:57:08;100250.97;;;33.59;22.15
71313;BME280;59104;44.738;20.612;2022-07-22T11:59:34;100243.81;;;33.58;22.57
71313;BME280;59104;44.738;20.612;2022-07-22T12:02:02;100247.28;;;33.64;22.79
71313;BME280;59104;44.738;20.612;2022-07-22T12:04:29;100247.34;;;33.72;22.59
71313;BME280;59104;44.738;20.612;2022-07-22T12:06:58;100225.59;;;33.66;22.16
71313;BME280;59104;44.738;20.612;2022-07-22T12:09:26;100241.38;;;33.79;22.70
71313;BME280;59104;44.738;20.612;2022-07-22T12:11:55;100245.84;;;33.88;23.39
71313;BME280;59104;44.738;20.612;2022-07-22T12:14:25;100240.81;;;33.90;22.44
71313;BME280;59104;44.738;20.612;2022-07-22T12:19:27;100243.66;;;33.99;21.45
71313;BME280;59104;44.738;20.612;2022-07-22T12:21:59;100228.63;;;34.00;21.54
71313;BME280;59104;44.738;20.612;2022-07-22T12:24:33;100230.63;;;34.08;21.42
71313;BME280;59104;44.738;20.612;2022-07-22T12:27:08;100237.09;;;34.17;21.77
71313;BME280;59104;44.738;20.612;2022-07-22T12:32:15;100227.66;;;34.27;22.45
71313;BME280;59104;44.738;20.612;2022-07-22T12:34:47;100219.03;;;34.28;22.68
71313;BME280;59104;44.738;20.612;2022-07-22T12:40:06;100213.38;;;34.42;22.95
71313;BME280;59104;44.738;20.612;2022-07-22T12:42:37;100208.81;;;34.46;23.02
71313;BME280;59104;44.738;20.612;2022-07-22T12:45:13;100219.78;;;34.51;23.54
71313;BME280;59104;44.738;20.612;2022-07-22T12:47:48;100205.91;;;34.51;23.37
71313;BME280;59104;44.738;20.612;2022-07-22T12:52:49;100204.00;;;34.60;23.25
71313;BME280;59104;44.738;20.612;2022-07-22T12:55:15;100215.97;;;34.69;22.63
71313;BME280;59104;44.738;20.612;2022-07-22T12:57:41;100193.72;;;34.69;22.00
71313;BME280;59104;44.738;20.612;2022-07-22T13:00:08;100203.91;;;34.82;21.79